Ana Sayfa
METAR-TAF:

METAR-TAF

Havaalanları :

Hartum, Sudan

Enlem: 15-36N, Boylam: 032-33E, yükseklik: 382 m

Güncel hava durumu gözlemi

Rapor saat 00:00 UTC de 20 dakika önce yapıldı.
Rüzgar kuzey/kuzeydoğudan 2 kt
Sıcaklık 30°C
Nem 46%
Basınç 1009 hPa
Görüş mesafesi 10 km veya daha fazla
1500 m altında bulut yok ve kümülonimbus yok

METAR: HSSS 160000Z 03002KT CAVOK 30/17 Q1009 NOSIG

Saat: 03:20 (00:20 UTC)

Tahmin

Rapor saat 23:00 UTC de 1 saat ve 20 dakika önce yapıldı.
Ayın 16'si saat 00 UTC'den ayın 17'si saat 06 UTC'ye kadar geçerli Tahmin
Rüzgar değişken yönden 3 kt
Görüş mesafesi 10 km veya daha fazla
14000 ft yükseklikte parçalı bulutlu
Geçici
ayın 16'si saat 04 UTC'den ayın 16'si saat 09 UTC'ye kadar
Rüzgar kuzey/kuzeybatıdan 10 kt ve 22 kt'a kadar ani rüzgarlar
Görüş mesafesi: 6000 m

TAF: HSSS 152300Z 1600/1706 VRB03KT 9999 SCT140 TEMPO 1604/1609 34010G22KT 6000

4.000'den fazla havaalanı için hava durumu gözlemleri ve tahminleri (METAR ve TAF raporları).

Kullanılabilir istasyonlar harita üzerinde sarı ve kırmızı noktalarla gösterilir.

İstasyonun adını görmek için fareyi noktanın üzerinde gezdirin.

Sonrasında hava gözlem ve tahminlerini görmek için tıklayın.

Haritayı değiştirmek için: yaklaştırmak için siyah artı işaretli yeşil düğmeye ve uzaklaştırmak için de eksi işaretli düğmeye hızla tıklayın; bitişik haritalar için yeşil okları kullanın.


METAR-TAF: